sensor_id;sensor_type;location;lat;lon;timestamp;temperature;humidity
12152;DHT22;6139;51.274;7.128;2024-03-08T00:00:30;3.00;1.00
12152;DHT22;6139;51.274;7.128;2024-03-08T00:01:32;3.00;1.00
12152;DHT22;6139;51.274;7.128;2024-03-08T00:02:33;3.00;1.00
12152;DHT22;6139;51.274;7.128;2024-03-08T00:03:35;3.00;1.00
12152;DHT22;6139;51.274;7.128;2024-03-08T00:04:36;3.00;1.00
12152;DHT22;6139;51.274;7.128;2024-03-08T00:05:38;3.00;1.00
12152;DHT22;6139;51.274;7.128;2024-03-08T00:06:39;3.00;1.00
12152;DHT22;6139;51.274;7.128;2024-03-08T00:07:42;3.00;1.00
12152;DHT22;6139;51.274;7.128;2024-03-08T00:08:43;3.00;1.00
12152;DHT22;6139;51.274;7.128;2024-03-08T00:09:45;3.00;1.00
12152;DHT22;6139;51.274;7.128;2024-03-08T00:10:46;3.00;1.00
12152;DHT22;6139;51.274;7.128;2024-03-08T00:11:48;2.90;1.00
12152;DHT22;6139;51.274;7.128;2024-03-08T00:12:51;3.00;1.00
12152;DHT22;6139;51.274;7.128;2024-03-08T00:13:55;3.00;1.00
12152;DHT22;6139;51.274;7.128;2024-03-08T00:14:56;2.90;1.00
12152;DHT22;6139;51.274;7.128;2024-03-08T00:15:58;2.90;1.00
12152;DHT22;6139;51.274;7.128;2024-03-08T00:16:59;2.90;1.00
12152;DHT22;6139;51.274;7.128;2024-03-08T00:18:01;2.90;1.00
12152;DHT22;6139;51.274;7.128;2024-03-08T00:19:02;2.90;1.00
12152;DHT22;6139;51.274;7.128;2024-03-08T00:20:05;2.90;1.00
12152;DHT22;6139;51.274;7.128;2024-03-08T00:21:09;2.90;1.00
12152;DHT22;6139;51.274;7.128;2024-03-08T00:22:11;2.90;1.00
12152;DHT22;6139;51.274;7.128;2024-03-08T00:23:12;2.90;1.00
12152;DHT22;6139;51.274;7.128;2024-03-08T00:24:16;2.90;1.00
12152;DHT22;6139;51.274;7.128;2024-03-08T00:25:17;2.90;1.00
12152;DHT22;6139;51.274;7.128;2024-03-08T00:26:19;2.80;1.00
12152;DHT22;6139;51.274;7.128;2024-03-08T00:27:20;2.80;1.00
12152;DHT22;6139;51.274;7.128;2024-03-08T00:28:22;2.80;1.00
12152;DHT22;6139;51.274;7.128;2024-03-08T00:29:27;2.80;1.00
12152;DHT22;6139;51.274;7.128;2024-03-08T00:30:29;2.70;1.00
12152;DHT22;6139;51.274;7.128;2024-03-08T00:31:30;2.70;1.00
12152;DHT22;6139;51.274;7.128;2024-03-08T00:32:32;2.70;1.00
12152;DHT22;6139;51.274;7.128;2024-03-08T00:33:33;2.70;1.00
12152;DHT22;6139;51.274;7.128;2024-03-08T00:34:35;2.70;1.00
12152;DHT22;6139;51.274;7.128;2024-03-08T00:35:38;2.70;1.00
12152;DHT22;6139;51.274;7.128;2024-03-08T00:36:39;2.70;1.00
12152;DHT22;6139;51.274;7.128;2024-03-08T00:37:40;2.70;1.00
12152;DHT22;6139;51.274;7.128;2024-03-08T00:38:43;2.70;1.00
12152;DHT22;6139;51.274;7.128;2024-03-08T00:39:44;2.70;1.00
12152;DHT22;6139;51.274;7.128;2024-03-08T00:40:45;2.70;1.00
12152;DHT22;6139;51.274;7.128;2024-03-08T00:41:47;2.70;1.00
12152;DHT22;6139;51.274;7.128;2024-03-08T00:42:48;2.70;1.00
12152;DHT22;6139;51.274;7.128;2024-03-08T00:43:50;2.70;1.00
12152;DHT22;6139;51.274;7.128;2024-03-08T00:44:52;2.70;1.00
12152;DHT22;6139;51.274;7.128;2024-03-08T00:45:57;2.70;1.00
12152;DHT22;6139;51.274;7.128;2024-03-08T00:46:58;2.70;1.00
12152;DHT22;6139;51.274;7.128;2024-03-08T00:48:00;2.70;1.00
12152;DHT22;6139;51.274;7.128;2024-03-08T00:49:01;2.70;1.00
12152;DHT22;6139;51.274;7.128;2024-03-08T00:50:05;2.70;1.00
12152;DHT22;6139;51.274;7.128;2024-03-08T00:51:06;2.70;1.00
12152;DHT22;6139;51.274;7.128;2024-03-08T00:52:08;2.70;1.00
12152;DHT22;6139;51.274;7.128;2024-03-08T00:53:09;2.60;1.00
12152;DHT22;6139;51.274;7.128;2024-03-08T00:54:11;2.60;1.00
12152;DHT22;6139;51.274;7.128;2024-03-08T00:55:12;2.60;1.00
12152;DHT22;6139;51.274;7.128;2024-03-08T00:56:14;2.60;1.00
12152;DHT22;6139;51.274;7.128;2024-03-08T00:57:15;2.60;1.00
12152;DHT22;6139;51.274;7.128;2024-03-08T00:58:17;2.60;1.00
12152;DHT22;6139;51.274;7.128;2024-03-08T00:59:18;2.60;1.00
12152;DHT22;6139;51.274;7.128;2024-03-08T01:00:22;2.60;1.00
12152;DHT22;6139;51.274;7.128;2024-03-08T01:01:24;2.60;1.00
12152;DHT22;6139;51.274;7.128;2024-03-08T01:02:27;2.60;1.00
12152;DHT22;6139;51.274;7.128;2024-03-08T01:03:28;2.50;1.00
12152;DHT22;6139;51.274;7.128;2024-03-08T01:04:32;2.60;1.00
12152;DHT22;6139;51.274;7.128;2024-03-08T01:05:36;2.60;1.00
12152;DHT22;6139;51.274;7.128;2024-03-08T01:06:38;2.60;16.90
12152;DHT22;6139;51.274;7.128;2024-03-08T01:07:39;2.50;1.00
12152;DHT22;6139;51.274;7.128;2024-03-08T01:08:41;2.50;1.00
12152;DHT22;6139;51.274;7.128;2024-03-08T01:09:43;2.50;1.70
12152;DHT22;6139;51.274;7.128;2024-03-08T01:10:45;2.50;18.30
12152;DHT22;6139;51.274;7.128;2024-03-08T01:11:46;2.50;1.00
12152;DHT22;6139;51.274;7.128;2024-03-08T01:12:48;2.50;23.20
12152;DHT22;6139;51.274;7.128;2024-03-08T01:13:50;2.50;1.00
12152;DHT22;6139;51.274;7.128;2024-03-08T01:14:52;2.50;42.30
12152;DHT22;6139;51.274;7.128;2024-03-08T01:15:55;2.50;24.90
12152;DHT22;6139;51.274;7.128;2024-03-08T01:16:57;2.50;19.20
12152;DHT22;6139;51.274;7.128;2024-03-08T01:17:58;2.50;1.00
12152;DHT22;6139;51.274;7.128;2024-03-08T01:19:01;2.50;7.00
12152;DHT22;6139;51.274;7.128;2024-03-08T01:20:06;2.50;1.00
12152;DHT22;6139;51.274;7.128;2024-03-08T01:21:08;2.50;1.00
12152;DHT22;6139;51.274;7.128;2024-03-08T01:22:12;2.50;59.90
12152;DHT22;6139;51.274;7.128;2024-03-08T01:23:14;2.50;74.50
12152;DHT22;6139;51.274;7.128;2024-03-08T01:24:15;2.50;1.00
12152;DHT22;6139;51.274;7.128;2024-03-08T01:25:17;2.60;6.60
12152;DHT22;6139;51.274;7.128;2024-03-08T01:26:18;2.60;1.00
12152;DHT22;6139;51.274;7.128;2024-03-08T01:27:20;2.50;1.00
12152;DHT22;6139;51.274;7.128;2024-03-08T01:28:21;2.50;6.30
12152;DHT22;6139;51.274;7.128;2024-03-08T01:29:23;2.50;52.30
12152;DHT22;6139;51.274;7.128;2024-03-08T01:30:24;2.50;36.30
12152;DHT22;6139;51.274;7.128;2024-03-08T01:31:27;2.50;54.80
12152;DHT22;6139;51.274;7.128;2024-03-08T01:32:29;2.50;67.00
12152;DHT22;6139;51.274;7.128;2024-03-08T01:33:31;2.40;83.70
12152;DHT22;6139;51.274;7.128;2024-03-08T01:34:32;2.50;97.80
12152;DHT22;6139;51.274;7.128;2024-03-08T01:35:33;2.40;99.90
12152;DHT22;6139;51.274;7.128;2024-03-08T01:36:35;2.40;99.90
12152;DHT22;6139;51.274;7.128;2024-03-08T01:37:38;2.40;99.90
12152;DHT22;6139;51.274;7.128;2024-03-08T01:38:40;2.40;99.90
12152;DHT22;6139;51.274;7.128;2024-03-08T01:39:41;2.40;99.90
12152;DHT22;6139;51.274;7.128;2024-03-08T01:40:43;2.40;99.90
12152;DHT22;6139;51.274;7.128;2024-03-08T01:41:44;2.40;99.90
12152;DHT22;6139;51.274;7.128;2024-03-08T01:42:48;2.40;99.90
12152;DHT22;6139;51.274;7.128;2024-03-08T01:43:49;2.40;99.90
12152;DHT22;6139;51.274;7.128;2024-03-08T01:44:53;2.40;99.90
12152;DHT22;6139;51.274;7.128;2024-03-08T01:45:55;2.40;99.90
12152;DHT22;6139;51.274;7.128;2024-03-08T01:47:01;2.40;99.90
12152;DHT22;6139;51.274;7.128;2024-03-08T01:48:02;2.40;99.90
12152;DHT22;6139;51.274;7.128;2024-03-08T01:49:04;2.40;99.90
12152;DHT22;6139;51.274;7.128;2024-03-08T01:50:06;2.40;99.90
12152;DHT22;6139;51.274;7.128;2024-03-08T01:51:09;2.40;99.90
12152;DHT22;6139;51.274;7.128;2024-03-08T01:52:12;2.40;99.90
12152;DHT22;6139;51.274;7.128;2024-03-08T01:53:15;2.40;99.90
12152;DHT22;6139;51.274;7.128;2024-03-08T01:54:19;2.40;99.90
12152;DHT22;6139;51.274;7.128;2024-03-08T01:55:21;2.40;99.90
12152;DHT22;6139;51.274;7.128;2024-03-08T01:56:22;2.40;99.90
12152;DHT22;6139;51.274;7.128;2024-03-08T01:57:26;2.40;99.90
12152;DHT22;6139;51.274;7.128;2024-03-08T01:58:27;2.40;99.90
12152;DHT22;6139;51.274;7.128;2024-03-08T01:59:30;2.30;99.90
12152;DHT22;6139;51.274;7.128;2024-03-08T02:00:32;2.30;99.90
12152;DHT22;6139;51.274;7.128;2024-03-08T02:01:33;2.40;99.90
12152;DHT22;6139;51.274;7.128;2024-03-08T02:02:37;2.40;99.90
12152;DHT22;6139;51.274;7.128;2024-03-08T02:03:41;2.40;99.90
12152;DHT22;6139;51.274;7.128;2024-03-08T02:04:44;2.30;99.90
12152;DHT22;6139;51.274;7.128;2024-03-08T02:05:45;2.30;99.90
12152;DHT22;6139;51.274;7.128;2024-03-08T02:06:47;2.30;99.90
12152;DHT22;6139;51.274;7.128;2024-03-08T02:07:49;2.30;99.90
12152;DHT22;6139;51.274;7.128;2024-03-08T02:08:52;2.30;99.90
12152;DHT22;6139;51.274;7.128;2024-03-08T02:09:54;2.30;99.90
12152;DHT22;6139;51.274;7.128;2024-03-08T02:10:56;2.40;99.90
12152;DHT22;6139;51.274;7.128;2024-03-08T02:11:57;2.30;99.90
12152;DHT22;6139;51.274;7.128;2024-03-08T02:13:03;2.30;99.90
12152;DHT22;6139;51.274;7.128;2024-03-08T02:14:05;2.30;99.90
12152;DHT22;6139;51.274;7.128;2024-03-08T02:15:07;2.30;99.90
12152;DHT22;6139;51.274;7.128;2024-03-08T02:16:09;2.30;99.90
12152;DHT22;6139;51.274;7.128;2024-03-08T02:17:10;2.30;99.90
12152;DHT22;6139;51.274;7.128;2024-03-08T02:18:15;2.30;99.90
12152;DHT22;6139;51.274;7.128;2024-03-08T02:19:15;2.30;99.90
12152;DHT22;6139;51.274;7.128;2024-03-08T02:20:17;2.30;99.90
12152;DHT22;6139;51.274;7.128;2024-03-08T02:21:21;2.30;99.90
12152;DHT22;6139;51.274;7.128;2024-03-08T02:22:24;2.30;99.90
12152;DHT22;6139;51.274;7.128;2024-03-08T02:23:26;2.30;99.90
12152;DHT22;6139;51.274;7.128;2024-03-08T02:24:28;2.30;99.90
12152;DHT22;6139;51.274;7.128;2024-03-08T02:25:29;2.30;99.90
12152;DHT22;6139;51.274;7.128;2024-03-08T02:26:31;2.30;99.90
12152;DHT22;6139;51.274;7.128;2024-03-08T02:27:32;2.30;99.90
12152;DHT22;6139;51.274;7.128;2024-03-08T02:28:35;2.30;99.90
12152;DHT22;6139;51.274;7.128;2024-03-08T02:29:36;2.30;99.90
12152;DHT22;6139;51.274;7.128;2024-03-08T02:30:39;2.30;99.90
12152;DHT22;6139;51.274;7.128;2024-03-08T02:31:40;2.30;99.90
12152;DHT22;6139;51.274;7.128;2024-03-08T02:32:42;2.30;99.90
12152;DHT22;6139;51.274;7.128;2024-03-08T02:33:43;2.30;99.90
12152;DHT22;6139;51.274;7.128;2024-03-08T02:34:45;2.30;99.90
12152;DHT22;6139;51.274;7.128;2024-03-08T02:35:46;2.30;99.90
12152;DHT22;6139;51.274;7.128;2024-03-08T02:36:48;2.40;99.90
12152;DHT22;6139;51.274;7.128;2024-03-08T02:37:50;2.30;99.90
12152;DHT22;6139;51.274;7.128;2024-03-08T02:38:51;2.30;99.90
12152;DHT22;6139;51.274;7.128;2024-03-08T02:39:56;2.40;99.90
12152;DHT22;6139;51.274;7.128;2024-03-08T02:40:57;2.40;99.90
12152;DHT22;6139;51.274;7.128;2024-03-08T02:41:59;2.30;99.90
12152;DHT22;6139;51.274;7.128;2024-03-08T02:43:00;2.30;99.90
12152;DHT22;6139;51.274;7.128;2024-03-08T02:44:02;2.40;99.90
12152;DHT22;6139;51.274;7.128;2024-03-08T02:45:05;2.30;99.90
12152;DHT22;6139;51.274;7.128;2024-03-08T02:46:10;2.40;99.90
12152;DHT22;6139;51.274;7.128;2024-03-08T02:47:11;2.40;99.90
12152;DHT22;6139;51.274;7.128;2024-03-08T02:48:14;2.40;99.90
12152;DHT22;6139;51.274;7.128;2024-03-08T02:49:17;2.40;99.90
12152;DHT22;6139;51.274;7.128;2024-03-08T02:50:19;2.40;99.90
12152;DHT22;6139;51.274;7.128;2024-03-08T02:51:20;2.40;99.90
12152;DHT22;6139;51.274;7.128;2024-03-08T02:52:23;2.40;99.90
12152;DHT22;6139;51.274;7.128;2024-03-08T02:53:24;2.40;99.90
12152;DHT22;6139;51.274;7.128;2024-03-08T02:54:26;2.40;99.90
12152;DHT22;6139;51.274;7.128;2024-03-08T02:55:28;2.40;99.90
12152;DHT22;6139;51.274;7.128;2024-03-08T02:56:30;2.40;99.90
12152;DHT22;6139;51.274;7.128;2024-03-08T02:57:31;2.40;99.90
12152;DHT22;6139;51.274;7.128;2024-03-08T02:58:32;2.40;99.90
12152;DHT22;6139;51.274;7.128;2024-03-08T02:59:34;2.40;99.90
12152;DHT22;6139;51.274;7.128;2024-03-08T03:00:35;2.40;99.90
12152;DHT22;6139;51.274;7.128;2024-03-08T03:01:36;2.30;99.90
12152;DHT22;6139;51.274;7.128;2024-03-08T03:02:39;2.30;99.90
12152;DHT22;6139;51.274;7.128;2024-03-08T03:03:40;2.40;99.90
12152;DHT22;6139;51.274;7.128;2024-03-08T03:04:43;2.30;99.90
12152;DHT22;6139;51.274;7.128;2024-03-08T03:05:44;2.30;99.90
12152;DHT22;6139;51.274;7.128;2024-03-08T03:06:46;2.30;99.90
12152;DHT22;6139;51.274;7.128;2024-03-08T03:07:48;2.30;99.90
12152;DHT22;6139;51.274;7.128;2024-03-08T03:08:50;2.30;99.90
12152;DHT22;6139;51.274;7.128;2024-03-08T03:09:52;2.30;99.90
12152;DHT22;6139;51.274;7.128;2024-03-08T03:10:54;2.30;99.90
12152;DHT22;6139;51.274;7.128;2024-03-08T03:11:57;2.30;99.90
12152;DHT22;6139;51.274;7.128;2024-03-08T03:12:59;2.30;99.90
12152;DHT22;6139;51.274;7.128;2024-03-08T03:14:00;2.30;58.00
12152;DHT22;6139;51.274;7.128;2024-03-08T03:15:02;2.30;90.40
12152;DHT22;6139;51.274;7.128;2024-03-08T03:16:03;2.30;99.90
12152;DHT22;6139;51.274;7.128;2024-03-08T03:17:06;2.40;99.90
12152;DHT22;6139;51.274;7.128;2024-03-08T03:18:07;2.30;86.10
12152;DHT22;6139;51.274;7.128;2024-03-08T03:19:09;2.30;99.90
12152;DHT22;6139;51.274;7.128;2024-03-08T03:20:10;2.30;99.90
12152;DHT22;6139;51.274;7.128;2024-03-08T03:21:14;2.30;99.90
12152;DHT22;6139;51.274;7.128;2024-03-08T03:22:15;2.30;99.90
12152;DHT22;6139;51.274;7.128;2024-03-08T03:23:19;2.30;95.40
12152;DHT22;6139;51.274;7.128;2024-03-08T03:24:21;2.30;76.10
12152;DHT22;6139;51.274;7.128;2024-03-08T03:25:24;2.30;21.60
12152;DHT22;6139;51.274;7.128;2024-03-08T03:26:26;2.30;96.10
12152;DHT22;6139;51.274;7.128;2024-03-08T03:27:28;2.40;97.30
12152;DHT22;6139;51.274;7.128;2024-03-08T03:28:31;2.30;4.50
12152;DHT22;6139;51.274;7.128;2024-03-08T03:29:33;2.30;20.30
12152;DHT22;6139;51.274;7.128;2024-03-08T03:30:35;2.30;82.50
12152;DHT22;6139;51.274;7.128;2024-03-08T03:31:36;2.30;54.60
12152;DHT22;6139;51.274;7.128;2024-03-08T03:32:38;2.30;44.60
12152;DHT22;6139;51.274;7.128;2024-03-08T03:33:47;2.30;86.30
12152;DHT22;6139;51.274;7.128;2024-03-08T03:34:52;2.30;63.00
12152;DHT22;6139;51.274;7.128;2024-03-08T03:35:53;2.30;58.70
12152;DHT22;6139;51.274;7.128;2024-03-08T03:36:55;2.30;95.70
12152;DHT22;6139;51.274;7.128;2024-03-08T03:37:57;2.30;54.50
12152;DHT22;6139;51.274;7.128;2024-03-08T03:39:08;2.30;90.40
12152;DHT22;6139;51.274;7.128;2024-03-08T03:40:14;2.30;40.10
12152;DHT22;6139;51.274;7.128;2024-03-08T03:41:15;2.30;6.80
12152;DHT22;6139;51.274;7.128;2024-03-08T03:42:16;2.30;27.10
12152;DHT22;6139;51.274;7.128;2024-03-08T03:43:18;2.30;37.70
12152;DHT22;6139;51.274;7.128;2024-03-08T03:44:19;2.30;26.60
12152;DHT22;6139;51.274;7.128;2024-03-08T03:45:21;2.30;44.30
12152;DHT22;6139;51.274;7.128;2024-03-08T03:46:22;2.30;70.70
12152;DHT22;6139;51.274;7.128;2024-03-08T03:47:23;2.30;90.70
12152;DHT22;6139;51.274;7.128;2024-03-08T03:48:25;2.30;53.40
12152;DHT22;6139;51.274;7.128;2024-03-08T03:49:26;2.20;84.50
12152;DHT22;6139;51.274;7.128;2024-03-08T03:50:29;2.30;99.90
12152;DHT22;6139;51.274;7.128;2024-03-08T03:51:30;2.30;99.90
12152;DHT22;6139;51.274;7.128;2024-03-08T03:52:32;2.30;98.20
12152;DHT22;6139;51.274;7.128;2024-03-08T03:53:33;2.30;70.10
12152;DHT22;6139;51.274;7.128;2024-03-08T03:54:37;2.30;40.80
12152;DHT22;6139;51.274;7.128;2024-03-08T03:55:38;2.30;99.90
12152;DHT22;6139;51.274;7.128;2024-03-08T03:56:42;2.30;99.90
12152;DHT22;6139;51.274;7.128;2024-03-08T03:57:43;2.30;99.90
12152;DHT22;6139;51.274;7.128;2024-03-08T03:58:46;2.30;99.90
12152;DHT22;6139;51.274;7.128;2024-03-08T03:59:47;2.30;99.90
12152;DHT22;6139;51.274;7.128;2024-03-08T04:00:49;2.30;84.50
12152;DHT22;6139;51.274;7.128;2024-03-08T04:01:50;2.30;88.30
12152;DHT22;6139;51.274;7.128;2024-03-08T04:02:52;2.30;99.90
12152;DHT22;6139;51.274;7.128;2024-03-08T04:03:53;2.30;91.90
12152;DHT22;6139;51.274;7.128;2024-03-08T04:04:55;2.30;89.40
12152;DHT22;6139;51.274;7.128;2024-03-08T04:05:56;2.20;99.90
12152;DHT22;6139;51.274;7.128;2024-03-08T04:06:59;2.30;73.00
12152;DHT22;6139;51.274;7.128;2024-03-08T04:08:00;2.30;39.40
12152;DHT22;6139;51.274;7.128;2024-03-08T04:09:03;2.30;76.70
12152;DHT22;6139;51.274;7.128;2024-03-08T04:10:09;2.30;97.90
12152;DHT22;6139;51.274;7.128;2024-03-08T04:11:12;2.20;97.70
12152;DHT22;6139;51.274;7.128;2024-03-08T04:12:13;2.20;99.90
12152;DHT22;6139;51.274;7.128;2024-03-08T04:13:16;2.20;97.70
12152;DHT22;6139;51.274;7.128;2024-03-08T04:14:18;2.30;96.10
12152;DHT22;6139;51.274;7.128;2024-03-08T04:15:19;2.20;76.70
12152;DHT22;6139;51.274;7.128;2024-03-08T04:16:21;2.20;93.50
12152;DHT22;6139;51.274;7.128;2024-03-08T04:17:22;2.20;64.70
12152;DHT22;6139;51.274;7.128;2024-03-08T04:18:24;2.20;65.50
12152;DHT22;6139;51.274;7.128;2024-03-08T04:19:26;2.20;89.20
12152;DHT22;6139;51.274;7.128;2024-03-08T04:20:28;2.20;99.90
12152;DHT22;6139;51.274;7.128;2024-03-08T04:21:30;2.20;99.90
12152;DHT22;6139;51.274;7.128;2024-03-08T04:22:32;2.20;99.90
12152;DHT22;6139;51.274;7.128;2024-03-08T04:23:33;2.20;99.90
12152;DHT22;6139;51.274;7.128;2024-03-08T04:24:36;2.20;99.90
12152;DHT22;6139;51.274;7.128;2024-03-08T04:25:38;2.20;99.90
12152;DHT22;6139;51.274;7.128;2024-03-08T04:26:42;2.20;99.90
12152;DHT22;6139;51.274;7.128;2024-03-08T04:27:44;2.20;99.90
12152;DHT22;6139;51.274;7.128;2024-03-08T04:28:47;2.10;99.90
12152;DHT22;6139;51.274;7.128;2024-03-08T04:29:48;2.10;99.90
12152;DHT22;6139;51.274;7.128;2024-03-08T04:30:50;2.10;99.90
12152;DHT22;6139;51.274;7.128;2024-03-08T04:31:51;2.10;99.90
12152;DHT22;6139;51.274;7.128;2024-03-08T04:32:54;2.10;99.90
12152;DHT22;6139;51.274;7.128;2024-03-08T04:33:55;2.10;99.90
12152;DHT22;6139;51.274;7.128;2024-03-08T04:34:57;2.10;99.90
12152;DHT22;6139;51.274;7.128;2024-03-08T04:35:59;2.10;99.90
12152;DHT22;6139;51.274;7.128;2024-03-08T04:37:01;2.10;99.90
12152;DHT22;6139;51.274;7.128;2024-03-08T04:38:03;2.10;99.90
12152;DHT22;6139;51.274;7.128;2024-03-08T04:39:06;2.10;99.90
12152;DHT22;6139;51.274;7.128;2024-03-08T04:40:10;2.10;99.90
12152;DHT22;6139;51.274;7.128;2024-03-08T04:41:13;2.10;99.90
12152;DHT22;6139;51.274;7.128;2024-03-08T04:42:15;2.10;99.90
12152;DHT22;6139;51.274;7.128;2024-03-08T04:43:18;2.00;99.90
12152;DHT22;6139;51.274;7.128;2024-03-08T04:44:23;2.10;99.90
12152;DHT22;6139;51.274;7.128;2024-03-08T04:45:25;2.10;99.90
12152;DHT22;6139;51.274;7.128;2024-03-08T04:46:27;2.10;99.90
12152;DHT22;6139;51.274;7.128;2024-03-08T04:47:29;2.10;99.90
12152;DHT22;6139;51.274;7.128;2024-03-08T04:48:31;2.10;99.90
12152;DHT22;6139;51.274;7.128;2024-03-08T04:49:32;2.10;99.90
12152;DHT22;6139;51.274;7.128;2024-03-08T04:50:35;2.10;99.90
12152;DHT22;6139;51.274;7.128;2024-03-08T04:51:36;2.10;99.90
12152;DHT22;6139;51.274;7.128;2024-03-08T04:52:38;2.10;99.90
12152;DHT22;6139;51.274;7.128;2024-03-08T04:53:39;2.00;99.90
12152;DHT22;6139;51.274;7.128;2024-03-08T04:54:41;2.00;99.90
12152;DHT22;6139;51.274;7.128;2024-03-08T04:55:42;2.00;99.90
12152;DHT22;6139;51.274;7.128;2024-03-08T04:56:46;2.00;99.90
12152;DHT22;6139;51.274;7.128;2024-03-08T04:57:47;2.10;99.90
12152;DHT22;6139;51.274;7.128;2024-03-08T04:58:51;2.10;99.90
12152;DHT22;6139;51.274;7.128;2024-03-08T04:59:55;2.10;99.90
12152;DHT22;6139;51.274;7.128;2024-03-08T05:00:59;2.10;99.90
12152;DHT22;6139;51.274;7.128;2024-03-08T05:02:00;2.10;99.90
12152;DHT22;6139;51.274;7.128;2024-03-08T05:03:02;2.10;99.90
12152;DHT22;6139;51.274;7.128;2024-03-08T05:04:05;2.10;99.90
12152;DHT22;6139;51.274;7.128;2024-03-08T05:05:07;2.10;99.90
12152;DHT22;6139;51.274;7.128;2024-03-08T05:06:10;2.00;99.90
12152;DHT22;6139;51.274;7.128;2024-03-08T05:07:11;2.00;1.00
12152;DHT22;6139;51.274;7.128;2024-03-08T05:08:12;2.00;1.00
12152;DHT22;6139;51.274;7.128;2024-03-08T05:09:14;2.00;1.00
12152;DHT22;6139;51.274;7.128;2024-03-08T05:10:16;2.10;99.90
12152;DHT22;6139;51.274;7.128;2024-03-08T05:11:19;2.00;1.00
12152;DHT22;6139;51.274;7.128;2024-03-08T05:12:21;2.00;1.00
12152;DHT22;6139;51.274;7.128;2024-03-08T05:13:23;2.10;1.00
12152;DHT22;6139;51.274;7.128;2024-03-08T05:14:24;2.10;1.00
12152;DHT22;6139;51.274;7.128;2024-03-08T05:15:27;2.00;1.00
12152;DHT22;6139;51.274;7.128;2024-03-08T05:16:28;2.00;1.00
12152;DHT22;6139;51.274;7.128;2024-03-08T05:17:30;2.00;1.00
12152;DHT22;6139;51.274;7.128;2024-03-08T05:18:31;2.00;1.00
12152;DHT22;6139;51.274;7.128;2024-03-08T05:19:33;2.00;1.00
12152;DHT22;6139;51.274;7.128;2024-03-08T05:20:34;2.00;1.00
12152;DHT22;6139;51.274;7.128;2024-03-08T05:21:37;2.00;1.00
12152;DHT22;6139;51.274;7.128;2024-03-08T05:22:39;2.00;1.00
12152;DHT22;6139;51.274;7.128;2024-03-08T05:23:41;2.00;1.00
12152;DHT22;6139;51.274;7.128;2024-03-08T05:24:43;2.10;1.00
12152;DHT22;6139;51.274;7.128;2024-03-08T05:25:45;2.10;1.00
12152;DHT22;6139;51.274;7.128;2024-03-08T05:26:47;2.00;1.00
12152;DHT22;6139;51.274;7.128;2024-03-08T05:27:50;2.10;1.00
12152;DHT22;6139;51.274;7.128;2024-03-08T05:28:51;2.10;1.00
12152;DHT22;6139;51.274;7.128;2024-03-08T05:29:53;2.10;1.00
12152;DHT22;6139;51.274;7.128;2024-03-08T05:30:54;2.10;1.00
12152;DHT22;6139;51.274;7.128;2024-03-08T05:31:57;2.10;1.00
12152;DHT22;6139;51.274;7.128;2024-03-08T05:32:58;2.00;1.00
12152;DHT22;6139;51.274;7.128;2024-03-08T05:34:00;2.00;1.00
12152;DHT22;6139;51.274;7.128;2024-03-08T05:35:01;2.00;1.00
12152;DHT22;6139;51.274;7.128;2024-03-08T05:36:08;2.00;1.00
12152;DHT22;6139;51.274;7.128;2024-03-08T05:37:09;2.10;1.00
12152;DHT22;6139;51.274;7.128;2024-03-08T05:38:12;2.10;1.00
12152;DHT22;6139;51.274;7.128;2024-03-08T05:39:13;2.10;1.00
12152;DHT22;6139;51.274;7.128;2024-03-08T05:40:15;2.10;1.00
12152;DHT22;6139;51.274;7.128;2024-03-08T05:41:16;2.00;1.00
12152;DHT22;6139;51.274;7.128;2024-03-08T05:42:19;2.00;1.00
12152;DHT22;6139;51.274;7.128;2024-03-08T05:43:21;2.00;1.00
12152;DHT22;6139;51.274;7.128;2024-03-08T05:44:23;2.00;1.00
12152;DHT22;6139;51.274;7.128;2024-03-08T05:45:24;2.00;1.00
12152;DHT22;6139;51.274;7.128;2024-03-08T05:46:26;2.00;1.00
12152;DHT22;6139;51.274;7.128;2024-03-08T05:47:27;2.00;1.00
12152;DHT22;6139;51.274;7.128;2024-03-08T05:48:29;2.00;1.00
12152;DHT22;6139;51.274;7.128;2024-03-08T05:49:32;2.00;1.00
12152;DHT22;6139;51.274;7.128;2024-03-08T05:50:34;2.00;1.00
12152;DHT22;6139;51.274;7.128;2024-03-08T05:51:36;2.00;1.00
12152;DHT22;6139;51.274;7.128;2024-03-08T05:52:40;2.00;1.00
12152;DHT22;6139;51.274;7.128;2024-03-08T05:53:40;2.00;1.00
12152;DHT22;6139;51.274;7.128;2024-03-08T05:54:44;2.00;1.00
12152;DHT22;6139;51.274;7.128;2024-03-08T05:55:46;2.00;1.00
12152;DHT22;6139;51.274;7.128;2024-03-08T05:56:48;2.00;1.00
12152;DHT22;6139;51.274;7.128;2024-03-08T05:57:49;2.00;1.00
12152;DHT22;6139;51.274;7.128;2024-03-08T05:58:52;2.00;1.00
12152;DHT22;6139;51.274;7.128;2024-03-08T05:59:53;2.00;16.10
12152;DHT22;6139;51.274;7.128;2024-03-08T06:00:55;2.00;1.00
12152;DHT22;6139;51.274;7.128;2024-03-08T06:01:56;2.10;1.00
12152;DHT22;6139;51.274;7.128;2024-03-08T06:02:58;2.10;1.00
12152;DHT22;6139;51.274;7.128;2024-03-08T06:03:59;2.10;1.00
12152;DHT22;6139;51.274;7.128;2024-03-08T06:05:02;2.10;1.00
12152;DHT22;6139;51.274;7.128;2024-03-08T06:06:03;2.10;1.00
12152;DHT22;6139;51.274;7.128;2024-03-08T06:07:05;2.20;1.00
12152;DHT22;6139;51.274;7.128;2024-03-08T06:08:06;2.20;1.00
12152;DHT22;6139;51.274;7.128;2024-03-08T06:09:08;2.20;1.00
12152;DHT22;6139;51.274;7.128;2024-03-08T06:10:12;2.20;1.00
12152;DHT22;6139;51.274;7.128;2024-03-08T06:11:14;2.20;1.00
12152;DHT22;6139;51.274;7.128;2024-03-08T06:12:15;2.20;1.00
12152;DHT22;6139;51.274;7.128;2024-03-08T06:13:19;2.20;1.00
12152;DHT22;6139;51.274;7.128;2024-03-08T06:14:22;2.30;1.00
12152;DHT22;6139;51.274;7.128;2024-03-08T06:15:24;2.30;1.00
12152;DHT22;6139;51.274;7.128;2024-03-08T06:16:25;2.30;1.00
12152;DHT22;6139;51.274;7.128;2024-03-08T06:17:27;2.30;1.00
12152;DHT22;6139;51.274;7.128;2024-03-08T06:18:28;2.30;1.00
12152;DHT22;6139;51.274;7.128;2024-03-08T06:19:30;2.30;1.00
12152;DHT22;6139;51.274;7.128;2024-03-08T06:20:32;2.30;1.00
12152;DHT22;6139;51.274;7.128;2024-03-08T06:21:34;2.40;1.00
12152;DHT22;6139;51.274;7.128;2024-03-08T06:22:37;2.30;1.00
12152;DHT22;6139;51.274;7.128;2024-03-08T06:23:38;2.30;1.00
12152;DHT22;6139;51.274;7.128;2024-03-08T06:24:40;2.30;1.00
12152;DHT22;6139;51.274;7.128;2024-03-08T06:25:41;2.30;1.00
12152;DHT22;6139;51.274;7.128;2024-03-08T06:26:44;2.30;1.00
12152;DHT22;6139;51.274;7.128;2024-03-08T06:27:45;2.40;1.00
12152;DHT22;6139;51.274;7.128;2024-03-08T06:28:47;2.40;1.00
12152;DHT22;6139;51.274;7.128;2024-03-08T06:29:50;2.40;1.00
12152;DHT22;6139;51.274;7.128;2024-03-08T06:30:53;2.40;1.00
12152;DHT22;6139;51.274;7.128;2024-03-08T06:31:55;2.40;1.00
12152;DHT22;6139;51.274;7.128;2024-03-08T06:32:57;2.40;1.00
12152;DHT22;6139;51.274;7.128;2024-03-08T06:33:58;2.40;1.00
12152;DHT22;6139;51.274;7.128;2024-03-08T06:35:00;2.40;1.00
12152;DHT22;6139;51.274;7.128;2024-03-08T06:36:02;2.50;1.00
12152;DHT22;6139;51.274;7.128;2024-03-08T06:37:05;2.50;1.00
12152;DHT22;6139;51.274;7.128;2024-03-08T06:40:53;2.50;1.00
12152;DHT22;6139;51.274;7.128;2024-03-08T06:45:51;2.60;1.00
12152;DHT22;6139;51.274;7.128;2024-03-08T06:46:53;2.60;1.00
12152;DHT22;6139;51.274;7.128;2024-03-08T06:47:55;2.60;1.00
12152;DHT22;6139;51.274;7.128;2024-03-08T06:48:56;2.70;1.00
12152;DHT22;6139;51.274;7.128;2024-03-08T06:49:58;2.70;1.00
12152;DHT22;6139;51.274;7.128;2024-03-08T06:50:59;2.70;1.00
12152;DHT22;6139;51.274;7.128;2024-03-08T06:52:00;2.70;1.00
12152;DHT22;6139;51.274;7.128;2024-03-08T06:53:02;2.70;1.00
12152;DHT22;6139;51.274;7.128;2024-03-08T06:54:04;2.70;1.00
12152;DHT22;6139;51.274;7.128;2024-03-08T06:55:09;2.70;1.00